createdAt,value
2022-09-02T00:00:58.878Z,59.60
2022-09-02T00:01:59.010Z,55.80
2022-09-02T00:02:59.001Z,61.00
2022-09-02T00:03:58.879Z,58.50
2022-09-02T00:04:59.232Z,62.40
2022-09-02T00:05:58.853Z,66.00
2022-09-02T00:06:58.847Z,77.40
2022-09-02T00:07:58.822Z,65.70
2022-09-02T00:08:58.821Z,64.10
2022-09-02T00:09:59.228Z,73.90
2022-09-02T00:10:58.843Z,71.50
2022-09-02T00:11:58.758Z,70.00
2022-09-02T00:12:58.738Z,68.90
2022-09-02T00:13:58.724Z,72.50
2022-09-02T00:14:59.186Z,71.50
2022-09-02T00:16:10.311Z,72.00
2022-09-02T00:16:58.791Z,71.80
2022-09-02T00:17:59.062Z,65.90
2022-09-02T00:18:58.666Z,60.70
2022-09-02T00:19:59.017Z,79.60
2022-09-02T00:20:58.654Z,73.70
2022-09-02T00:21:58.616Z,68.70
2022-09-02T00:22:58.634Z,77.70
2022-09-02T00:23:58.614Z,72.20
2022-09-02T00:24:58.925Z,74.70
2022-09-02T00:25:58.574Z,76.20
2022-09-02T00:26:58.593Z,81.30
2022-09-02T00:27:58.553Z,74.20
2022-09-02T00:28:58.567Z,77.40
2022-09-02T00:29:58.972Z,81.00
2022-09-02T00:30:58.534Z,68.20
2022-09-02T00:31:58.606Z,71.80
2022-09-02T00:32:58.502Z,74.20
2022-09-02T00:33:58.523Z,78.30
2022-09-02T00:34:58.953Z,77.60
2022-09-02T00:35:58.461Z,78.90
2022-09-02T00:36:58.453Z,68.40
2022-09-02T00:37:58.463Z,71.40
2022-09-02T00:38:58.463Z,76.90
2022-09-02T00:39:58.782Z,75.70
2022-09-02T00:40:58.402Z,71.80
2022-09-02T00:41:58.372Z,80.30
2022-09-02T00:42:58.374Z,77.30
2022-09-02T00:43:58.339Z,72.60
2022-09-02T00:44:58.381Z,68.10
2022-09-02T00:45:58.789Z,80.90
2022-09-02T00:46:58.329Z,78.00
2022-09-02T00:47:58.318Z,80.20
2022-09-02T00:48:58.313Z,72.80
2022-09-02T00:49:58.310Z,72.80
2022-09-02T00:50:58.600Z,74.30
2022-09-02T00:51:58.244Z,86.40
2022-09-02T00:52:58.267Z,79.20
2022-09-02T00:53:58.272Z,82.90
2022-09-02T00:54:58.217Z,80.00
2022-09-02T00:55:58.644Z,82.10
2022-09-02T00:56:58.189Z,77.70
2022-09-02T00:57:58.199Z,77.60
2022-09-02T00:58:58.206Z,79.70
2022-09-02T00:59:58.151Z,88.90
2022-09-02T01:00:58.689Z,78.10
2022-09-02T01:01:58.281Z,74.90
2022-09-02T01:02:58.127Z,77.60
2022-09-02T01:03:58.128Z,75.50
2022-09-02T01:04:58.107Z,80.10
2022-09-02T01:05:58.453Z,78.10
2022-09-02T01:06:58.047Z,81.80
2022-09-02T01:07:58.049Z,82.70
2022-09-02T01:08:58.089Z,80.50
2022-09-02T01:09:58.005Z,84.80
2022-09-02T01:10:58.385Z,86.00
2022-09-02T01:11:57.984Z,79.00
2022-09-02T01:12:57.985Z,81.70
2022-09-02T01:13:58.116Z,72.30
2022-09-02T01:14:58.005Z,77.70
2022-09-02T01:15:58.377Z,79.60
2022-09-02T01:16:57.955Z,82.60
2022-09-02T01:17:57.933Z,72.70
2022-09-02T01:18:57.922Z,80.80
2022-09-02T01:19:57.904Z,82.10
2022-09-02T01:20:58.304Z,74.10
2022-09-02T01:21:57.889Z,75.10
2022-09-02T01:22:57.873Z,86.80
2022-09-02T01:23:57.883Z,74.20
2022-09-02T01:24:57.833Z,72.20
2022-09-02T01:25:58.284Z,73.30
2022-09-02T01:26:57.821Z,73.80
2022-09-02T01:27:57.810Z,80.30
2022-09-02T01:28:57.812Z,71.50
2022-09-02T01:29:57.784Z,73.20
2022-09-02T01:30:58.301Z,67.00
2022-09-02T01:31:57.828Z,74.90
2022-09-02T01:32:57.750Z,61.90
2022-09-02T01:33:57.740Z,65.80
2022-09-02T01:34:57.728Z,71.80
2022-09-02T01:35:58.061Z,68.00
2022-09-02T01:36:57.700Z,66.40
2022-09-02T01:37:57.669Z,70.70
2022-09-02T01:38:57.650Z,84.20
2022-09-02T01:39:57.641Z,69.00
2022-09-02T01:40:58.081Z,70.90
2022-09-02T01:41:57.727Z,67.20
2022-09-02T01:42:57.666Z,72.50
2022-09-02T01:43:57.630Z,69.80
2022-09-02T01:44:57.608Z,62.10
2022-09-02T01:45:57.999Z,68.20
2022-09-02T01:46:57.606Z,69.30
2022-09-02T01:47:57.546Z,68.30
2022-09-02T01:48:57.526Z,53.60
2022-09-02T01:49:57.517Z,62.40
2022-09-02T01:50:58.080Z,62.40
2022-09-02T01:51:57.538Z,71.70
2022-09-02T01:52:57.537Z,66.10
2022-09-02T01:53:57.477Z,59.80
2022-09-02T01:54:57.493Z,58.70
2022-09-02T01:55:57.897Z,59.70
2022-09-02T01:56:57.456Z,64.90
2022-09-02T01:57:57.423Z,67.70
2022-09-02T01:58:57.418Z,72.20
2022-09-02T01:59:57.417Z,63.20
2022-09-02T02:00:57.910Z,74.50
2022-09-02T02:01:57.429Z,79.20
2022-09-02T02:02:57.353Z,64.10
2022-09-02T02:03:57.352Z,79.20
2022-09-02T02:04:57.345Z,72.20
2022-09-02T02:05:57.326Z,71.30
2022-09-02T02:06:57.684Z,71.70
2022-09-02T02:07:57.297Z,73.10
2022-09-02T02:08:57.274Z,66.50
2022-09-02T02:09:57.293Z,65.50
2022-09-02T02:10:57.263Z,67.20
2022-09-02T02:11:57.762Z,68.60
2022-09-02T02:12:57.246Z,61.50
2022-09-02T02:13:57.222Z,65.60
2022-09-02T02:14:57.212Z,74.90
2022-09-02T02:15:57.560Z,71.80
2022-09-02T02:16:57.912Z,77.70
2022-09-02T02:17:57.171Z,69.20
2022-09-02T02:18:57.172Z,80.80
2022-09-02T02:19:57.170Z,62.70
2022-09-02T02:20:57.122Z,77.10
2022-09-02T02:21:57.539Z,65.20
2022-09-02T02:22:57.111Z,71.70
2022-09-02T02:23:57.141Z,80.50
2022-09-02T02:24:57.083Z,68.10
2022-09-02T02:25:57.088Z,83.30
2022-09-02T02:26:57.428Z,75.40
2022-09-02T02:27:57.069Z,72.30
2022-09-02T02:28:57.059Z,87.20
2022-09-02T02:29:57.047Z,68.60
2022-09-02T02:30:57.054Z,81.80
2022-09-02T02:31:57.439Z,77.50
2022-09-02T02:32:56.980Z,75.70
2022-09-02T02:33:56.985Z,76.20
2022-09-02T02:34:56.979Z,73.00
2022-09-02T02:35:56.935Z,72.60
2022-09-02T02:36:57.377Z,79.10
2022-09-02T02:37:56.938Z,75.00
2022-09-02T02:38:56.884Z,82.10
2022-09-02T02:39:56.888Z,76.70
2022-09-02T02:40:56.887Z,78.70
2022-09-02T02:41:57.269Z,81.00
2022-09-02T02:42:56.856Z,72.60
2022-09-02T02:43:56.848Z,76.50
2022-09-02T02:44:56.805Z,78.50
2022-09-02T02:45:56.804Z,86.40
2022-09-02T02:46:57.360Z,80.60
2022-09-02T02:47:56.795Z,90.40
2022-09-02T02:48:56.766Z,90.00
2022-09-02T02:49:56.795Z,74.60
2022-09-02T02:50:56.764Z,89.70
2022-09-02T02:51:57.156Z,77.00
2022-09-02T02:52:56.754Z,75.80
2022-09-02T02:53:58.905Z,82.80
2022-09-02T02:54:56.692Z,81.60
2022-09-02T02:55:56.707Z,79.30
2022-09-02T02:56:57.047Z,69.30
2022-09-02T02:57:56.685Z,79.40
2022-09-02T02:58:56.633Z,78.20
2022-09-02T02:59:56.640Z,77.60
2022-09-02T03:00:56.631Z,78.70
2022-09-02T03:01:57.116Z,80.70
2022-09-02T03:02:56.689Z,75.20
2022-09-02T03:03:56.602Z,78.30
2022-09-02T03:04:56.632Z,74.30
2022-09-02T03:05:56.578Z,80.60
2022-09-02T03:06:56.961Z,74.30
2022-09-02T03:07:56.531Z,67.70
2022-09-02T03:08:56.534Z,70.60
2022-09-02T03:09:56.562Z,69.60
2022-09-02T03:10:56.508Z,69.70
2022-09-02T03:11:56.821Z,74.50
2022-09-02T03:12:56.487Z,71.90
2022-09-02T03:13:56.490Z,68.40
2022-09-02T03:14:56.470Z,76.50
2022-09-02T03:15:56.539Z,72.80
2022-09-02T03:16:56.873Z,67.90
2022-09-02T03:17:56.428Z,65.20
2022-09-02T03:18:56.429Z,62.90
2022-09-02T03:19:56.384Z,67.40
2022-09-02T03:20:56.376Z,68.10
2022-09-02T03:21:56.777Z,65.70
2022-09-02T03:22:56.345Z,71.40
2022-09-02T03:23:56.441Z,61.50
2022-09-02T03:24:56.323Z,72.90
2022-09-02T03:25:56.297Z,71.30
2022-09-02T03:26:56.615Z,75.40
2022-09-02T03:27:56.266Z,68.40
2022-09-02T03:28:56.256Z,61.20
2022-09-02T03:29:56.247Z,59.60
2022-09-02T03:30:56.336Z,76.60
2022-09-02T03:31:56.657Z,57.60
2022-09-02T03:32:58.405Z,70.20
2022-09-02T03:33:56.232Z,65.80
2022-09-02T03:34:56.154Z,73.40
2022-09-02T03:35:56.175Z,62.40
2022-09-02T03:36:56.536Z,65.40
2022-09-02T03:37:56.143Z,66.80
2022-09-02T03:38:56.151Z,59.40
2022-09-02T03:39:56.811Z,71.60
2022-09-02T03:40:56.090Z,59.80
2022-09-02T03:41:56.565Z,54.50
2022-09-02T03:42:59.928Z,66.60
2022-09-02T03:43:56.125Z,69.20
2022-09-02T03:44:56.441Z,65.80
2022-09-02T03:45:56.069Z,66.10
2022-09-02T03:46:56.464Z,71.80
2022-09-02T03:47:56.040Z,54.90
2022-09-02T03:48:56.023Z,68.90
2022-09-02T03:49:55.982Z,62.30
2022-09-02T03:50:55.981Z,70.20
2022-09-02T03:51:56.368Z,65.40
2022-09-02T03:52:56.079Z,72.60
2022-09-02T03:53:55.977Z,66.60
2022-09-02T03:54:55.940Z,70.20
2022-09-02T03:55:55.914Z,64.80
2022-09-02T03:56:55.901Z,70.30
2022-09-02T03:57:56.339Z,70.30
2022-09-02T03:58:55.887Z,69.40
2022-09-02T03:59:55.877Z,63.90
2022-09-02T04:00:55.927Z,68.40
2022-09-02T04:01:56.292Z,72.30
2022-09-02T04:02:55.871Z,72.50
2022-09-02T04:03:55.826Z,70.10
2022-09-02T04:04:55.779Z,71.80
2022-09-02T04:05:55.839Z,70.10
2022-09-02T04:06:55.756Z,72.50
2022-09-02T04:07:56.199Z,64.70
2022-09-02T04:08:55.790Z,68.90
2022-09-02T04:09:55.768Z,73.00
2022-09-02T04:10:55.748Z,70.30
2022-09-02T04:11:56.060Z,77.80
2022-09-02T04:12:55.741Z,68.40
2022-09-02T04:13:55.716Z,72.00
2022-09-02T04:14:57.644Z,66.50
2022-09-02T04:15:58.618Z,73.70
2022-09-02T04:16:57.067Z,73.70
2022-09-02T04:17:55.666Z,68.40
2022-09-02T04:18:55.624Z,65.50
2022-09-02T04:19:55.657Z,66.90
2022-09-02T04:20:55.646Z,75.50
2022-09-02T04:21:56.042Z,65.50
2022-09-02T04:22:55.565Z,71.80
2022-09-02T04:23:55.663Z,64.50
2022-09-02T04:24:55.576Z,76.20
2022-09-02T04:25:55.555Z,82.40
2022-09-02T04:26:55.542Z,64.80
2022-09-02T04:27:55.814Z,60.20
2022-09-02T04:28:55.744Z,71.10
2022-09-02T04:29:55.532Z,71.10
2022-09-02T04:30:55.567Z,61.50
2022-09-02T04:31:55.892Z,67.20
2022-09-02T04:32:55.443Z,63.80
2022-09-02T04:33:55.442Z,71.50
2022-09-02T04:34:55.420Z,64.10
2022-09-02T04:35:55.482Z,70.00
2022-09-02T04:36:55.403Z,73.20
2022-09-02T04:37:55.832Z,67.00
2022-09-02T04:38:55.371Z,80.70
2022-09-02T04:39:55.370Z,66.80
2022-09-02T04:40:55.381Z,55.70
2022-09-02T04:41:55.741Z,55.20
2022-09-02T04:42:55.503Z,64.00
2022-09-02T04:43:55.378Z,65.10
2022-09-02T04:44:55.319Z,69.70
2022-09-02T04:45:55.339Z,69.50
2022-09-02T04:46:55.570Z,57.00
2022-09-02T04:47:55.270Z,71.00
2022-09-02T04:48:55.250Z,66.50
2022-09-02T04:49:55.221Z,60.10
2022-09-02T04:50:55.260Z,63.30
2022-09-02T04:51:55.607Z,54.00
2022-09-02T04:52:55.175Z,63.40
2022-09-02T04:53:55.168Z,54.00
2022-09-02T04:54:55.167Z,65.50
2022-09-02T04:55:58.067Z,65.00
2022-09-02T04:56:55.597Z,57.10
2022-09-02T04:57:55.125Z,47.20
2022-09-02T05:00:12.885Z,46.00
2022-09-02T05:01:12.863Z,54.50
2022-09-02T05:02:13.914Z,66.10
2022-09-02T05:03:12.846Z,60.70
2022-09-02T05:04:12.800Z,60.20
2022-09-02T05:05:12.696Z,53.90
2022-09-02T05:06:12.674Z,64.00
2022-09-02T05:07:13.028Z,60.20
2022-09-02T05:08:12.635Z,55.50
2022-09-02T05:09:12.666Z,65.50
2022-09-02T05:10:12.627Z,67.60
2022-09-02T05:11:12.877Z,62.30
2022-09-02T05:12:13.100Z,59.90
2022-09-02T05:13:12.606Z,61.30
2022-09-02T05:14:12.620Z,61.80
2022-09-02T05:15:12.604Z,55.50
2022-09-02T05:16:12.976Z,64.70
2022-09-02T05:17:12.997Z,61.40
2022-09-02T05:18:13.049Z,58.10
2022-09-02T05:19:12.779Z,58.70
2022-09-02T05:20:12.505Z,56.80
2022-09-02T05:21:12.522Z,63.30
2022-09-02T05:22:12.882Z,67.80
2022-09-02T05:23:12.482Z,56.40
2022-09-02T05:24:12.483Z,57.60
2022-09-02T05:25:12.444Z,60.70
2022-09-02T05:26:12.433Z,71.10
2022-09-02T05:27:12.624Z,62.60
2022-09-02T05:28:12.367Z,64.70
2022-09-02T05:29:12.361Z,65.60
2022-09-02T05:30:12.391Z,60.30
2022-09-02T05:31:12.368Z,57.40
2022-09-02T05:32:12.654Z,55.90
2022-09-02T05:33:13.529Z,62.50
2022-09-02T05:34:12.291Z,63.60
2022-09-02T05:35:12.291Z,71.60
2022-09-02T05:36:12.300Z,68.50
2022-09-02T05:37:12.720Z,64.50
2022-09-02T05:38:12.282Z,63.60
2022-09-02T05:39:12.270Z,68.90
2022-09-02T05:40:12.331Z,71.20
2022-09-02T05:41:12.300Z,69.80
2022-09-02T05:42:12.530Z,66.90
2022-09-02T05:43:12.237Z,67.50
2022-09-02T05:44:12.179Z,52.50
2022-09-02T05:45:12.155Z,48.80
2022-09-02T05:46:12.227Z,69.60
2022-09-02T05:47:12.133Z,69.50
2022-09-02T05:48:12.546Z,61.50
2022-09-02T05:49:12.109Z,58.10
2022-09-02T05:50:12.121Z,58.80
2022-09-02T05:51:12.099Z,65.20
2022-09-02T05:52:12.089Z,65.40
2022-09-02T05:53:14.795Z,64.70
2022-09-02T05:54:12.027Z,71.70
2022-09-02T05:55:12.038Z,65.20
2022-09-02T05:56:12.028Z,56.90
2022-09-02T05:57:12.038Z,49.20
2022-09-02T05:58:12.457Z,52.70
2022-09-02T05:59:11.968Z,50.40
2022-09-02T06:00:16.944Z,56.70
2022-09-02T06:01:13.000Z,49.30
2022-09-02T06:02:12.044Z,48.10
2022-09-02T06:03:12.467Z,52.60
2022-09-02T06:04:11.954Z,46.50
2022-09-02T06:05:12.056Z,51.00
2022-09-02T06:06:22.424Z,42.90
2022-09-02T06:07:13.594Z,43.80
2022-09-02T06:08:12.482Z,39.50
2022-09-02T06:09:11.968Z,39.60
2022-09-02T06:10:12.005Z,35.60
2022-09-02T06:11:12.125Z,32.50
2022-09-02T06:12:11.815Z,32.30
2022-09-02T06:13:12.393Z,34.00
2022-09-02T06:14:11.996Z,29.00
2022-09-02T06:15:11.879Z,32.70
2022-09-02T06:16:12.024Z,33.50
2022-09-02T06:17:11.887Z,33.70
2022-09-02T06:18:14.400Z,26.40
2022-09-02T06:19:13.568Z,29.00
2022-09-02T06:20:12.019Z,24.30
2022-09-02T06:21:11.726Z,23.10
2022-09-02T06:22:11.706Z,24.80
2022-09-02T06:23:12.120Z,16.70
2022-09-02T06:24:11.746Z,26.00
2022-09-02T06:25:11.700Z,22.40
2022-09-02T06:26:12.327Z,17.40
2022-09-02T06:27:11.876Z,24.40
2022-09-02T06:28:12.233Z,19.60
2022-09-02T06:29:11.784Z,17.00
2022-09-02T06:30:11.764Z,17.80
2022-09-02T06:31:11.630Z,15.80
2022-09-02T06:32:11.588Z,3.10
2022-09-02T06:33:12.115Z,5.20
2022-09-02T06:34:18.665Z,6.00
2022-09-02T06:35:11.748Z,6.00
2022-09-02T06:36:11.659Z,2.00
2022-09-02T06:37:11.720Z,3.10
2022-09-02T06:38:12.120Z,0.90
2022-09-02T06:39:11.658Z,0.20
2022-09-02T06:40:11.705Z,0.70
2022-09-02T06:42:29.732Z,0.20
2022-09-02T06:43:29.394Z,0.20
2022-09-02T06:44:30.151Z,0.20
2022-09-02T06:45:29.168Z,0.10
2022-09-02T06:46:29.343Z,0.10
2022-09-02T06:47:29.112Z,0.20
2022-09-02T06:48:29.466Z,0.20
2022-09-02T06:49:29.106Z,0.20
2022-09-02T06:50:29.061Z,0.20
2022-09-02T06:51:29.013Z,0.20
2022-09-02T06:53:49.973Z,0.20
2022-09-02T06:54:48.983Z,0.10
2022-09-02T06:55:49.151Z,0.10
2022-09-02T06:56:49.651Z,0.20
2022-09-02T06:57:49.134Z,0.10
2022-09-02T06:58:49.434Z,0.20
2022-09-02T06:59:48.957Z,0.20
2022-09-02T07:00:48.851Z,0.10
2022-09-02T07:02:00.503Z,0.30
2022-09-02T07:04:18.624Z,0.20
2022-09-02T07:05:17.799Z,0.20
2022-09-02T07:06:17.793Z,0.10
2022-09-02T07:07:17.810Z,0.10
2022-09-02T07:08:26.728Z,0.10
2022-09-02T07:09:17.855Z,0.20
2022-09-02T07:10:17.869Z,0.20
2022-09-02T07:11:17.822Z,0.10
2022-09-02T07:12:17.797Z,0.20
2022-09-02T07:13:17.797Z,0.10
2022-09-02T07:14:17.905Z,0.10
2022-09-02T07:15:18.025Z,0.20
2022-09-02T07:16:22.755Z,0.10
2022-09-02T07:17:20.019Z,0.20
2022-09-02T07:19:35.561Z,0.30
2022-09-02T07:20:35.375Z,0.20
2022-09-02T07:21:34.915Z,0.10
2022-09-02T07:22:34.846Z,0.10
2022-09-02T07:26:16.970Z,0.10
2022-09-02T07:27:16.517Z,0.10
2022-09-02T07:28:16.485Z,0.10
2022-09-02T07:30:34.694Z,0.10
2022-09-02T07:31:34.198Z,0.20
2022-09-02T07:32:34.455Z,0.20
2022-09-02T07:33:33.997Z,0.20
2022-09-02T07:34:33.982Z,0.20
2022-09-02T07:35:33.987Z,0.20
2022-09-02T07:36:33.977Z,0.10
2022-09-02T07:37:33.901Z,0.20
2022-09-02T07:38:34.257Z,0.10
2022-09-02T07:39:33.937Z,0.10
2022-09-02T07:40:33.855Z,0.20
2022-09-02T07:41:33.865Z,0.10
2022-09-02T07:42:34.292Z,0.10
2022-09-02T07:43:33.771Z,0.20
2022-09-02T07:44:34.227Z,0.10
2022-09-02T07:45:33.924Z,0.20
2022-09-02T07:46:33.844Z,0.20
2022-09-02T07:47:33.808Z,0.20
2022-09-02T07:48:33.707Z,0.20
2022-09-02T07:50:34.652Z,0.20
2022-09-02T07:51:33.788Z,0.10
2022-09-02T07:52:33.757Z,0.20
2022-09-02T07:53:33.727Z,0.10
2022-09-02T07:54:34.222Z,0.10
2022-09-02T07:55:33.760Z,0.10
2022-09-02T07:56:34.140Z,0.20
2022-09-02T07:57:33.714Z,0.20
2022-09-02T07:58:33.650Z,0.20
2022-09-02T08:02:02.365Z,0.20
2022-09-02T08:03:02.097Z,0.10
2022-09-02T08:04:05.573Z,0.10
2022-09-02T08:05:01.977Z,0.20
2022-09-02T08:06:01.918Z,0.20
2022-09-02T08:07:02.005Z,0.30
2022-09-02T08:08:01.886Z,0.20
2022-09-02T08:09:01.878Z,0.10
2022-09-02T08:10:02.257Z,0.20
2022-09-02T08:12:01.856Z,0.20
2022-09-02T08:13:01.915Z,0.20
2022-09-02T08:14:01.846Z,0.20
2022-09-02T08:15:02.206Z,0.10
2022-09-02T08:16:01.989Z,0.10
2022-09-02T08:17:01.904Z,0.10
2022-09-02T08:18:01.775Z,0.20
2022-09-02T08:19:01.808Z,0.20
2022-09-02T08:20:01.819Z,0.10
2022-09-02T08:21:01.779Z,0.20
2022-09-02T08:22:01.719Z,0.20
2022-09-02T08:23:11.105Z,0.10
2022-09-02T08:24:02.736Z,0.10
2022-09-02T08:25:02.155Z,0.20
2022-09-02T08:26:01.743Z,0.20
2022-09-02T08:27:01.642Z,0.20
2022-09-02T08:28:01.696Z,0.10
2022-09-02T08:29:01.596Z,0.20
2022-09-02T08:30:01.643Z,0.10
2022-09-02T08:31:01.576Z,0.10
2022-09-02T08:32:01.613Z,0.30
2022-09-02T08:33:01.556Z,0.10
2022-09-02T08:34:01.548Z,0.20
2022-09-02T08:35:01.974Z,0.20
2022-09-02T08:36:01.506Z,0.10
2022-09-02T08:37:01.496Z,0.10
2022-09-02T08:38:02.318Z,0.10
2022-09-02T08:39:01.485Z,0.20
2022-09-02T08:40:01.876Z,0.20
2022-09-02T08:41:01.486Z,0.10
2022-09-02T08:43:01.414Z,0.20
2022-09-02T08:44:01.457Z,0.10
2022-09-02T08:45:01.464Z,0.10
2022-09-02T08:46:01.838Z,0.20
2022-09-02T08:47:01.545Z,0.10
2022-09-02T08:48:01.422Z,0.10
2022-09-02T08:49:01.493Z,0.10
2022-09-02T08:50:01.387Z,0.10
2022-09-02T08:51:01.405Z,0.10
2022-09-02T08:52:01.357Z,0.20
2022-09-02T08:53:01.341Z,0.20
2022-09-02T08:54:01.384Z,0.20
2022-09-02T08:55:01.339Z,0.20
2022-09-02T08:56:01.449Z,0.20
2022-09-02T08:57:01.485Z,0.20
2022-09-02T08:58:01.654Z,0.10
2022-09-02T08:59:01.744Z,0.10
2022-09-02T09:00:01.360Z,0.20
2022-09-02T09:01:01.567Z,0.20
2022-09-02T09:02:01.407Z,0.10
2022-09-02T09:03:01.236Z,0.20
2022-09-02T09:04:01.423Z,0.20
2022-09-02T09:05:01.374Z,0.20
2022-09-02T09:06:01.166Z,0.10
2022-09-02T09:07:01.253Z,0.20
2022-09-02T09:08:01.262Z,0.10
2022-09-02T09:09:01.254Z,0.10
2022-09-02T09:10:01.102Z,0.10
2022-09-02T09:11:01.599Z,0.10
2022-09-02T09:12:01.149Z,0.20
2022-09-02T09:13:01.164Z,0.10
2022-09-02T09:14:01.025Z,0.10
2022-09-02T09:15:01.081Z,0.10
2022-09-02T09:16:01.413Z,0.10
2022-09-02T09:17:01.276Z,0.20
2022-09-02T09:18:01.495Z,0.10
2022-09-02T09:19:02.959Z,0.10
2022-09-02T09:20:01.309Z,0.10
2022-09-02T09:21:16.673Z,0.10
2022-09-02T09:22:01.420Z,0.10
2022-09-02T09:23:01.304Z,0.10
2022-09-02T09:25:21.699Z,0.20
2022-09-02T09:27:45.587Z,0.10
2022-09-02T09:30:01.250Z,0.10
2022-09-02T09:31:01.773Z,0.20
2022-09-02T09:33:33.269Z,0.10
2022-09-02T09:38:15.948Z,0.10
2022-09-02T09:39:15.207Z,0.10
2022-09-02T09:40:15.235Z,0.10
2022-09-02T09:41:24.477Z,0.10
2022-09-02T09:42:15.495Z,0.10
2022-09-02T09:43:16.045Z,0.10
2022-09-02T09:44:15.255Z,0.20
2022-09-02T09:45:15.075Z,0.20
2022-09-02T09:46:23.258Z,0.10
2022-09-02T09:47:18.002Z,0.10
2022-09-02T09:48:14.905Z,0.50
2022-09-02T09:49:14.776Z,0.10
2022-09-02T09:50:14.826Z,0.10
2022-09-02T09:51:15.080Z,0.10
2022-09-02T09:52:14.760Z,0.30
2022-09-02T09:53:14.699Z,0.10
2022-09-02T09:54:14.668Z,0.10
2022-09-02T09:55:14.672Z,0.10
2022-09-02T09:56:14.681Z,0.20
2022-09-02T09:57:14.689Z,0.10
2022-09-02T09:58:15.176Z,0.20
2022-09-02T09:59:14.731Z,0.20
2022-09-02T10:00:14.647Z,0.20
2022-09-02T10:01:15.230Z,0.10
2022-09-02T10:02:14.693Z,0.10
2022-09-02T10:03:14.618Z,0.10
2022-09-02T10:04:39.398Z,0.10
2022-09-02T10:05:15.538Z,0.20
2022-09-02T10:06:14.918Z,0.10
2022-09-02T10:07:14.508Z,0.10
2022-09-02T10:08:15.398Z,0.10
2022-09-02T10:09:24.548Z,0.10
2022-09-02T10:10:14.966Z,0.10
2022-09-02T10:11:15.415Z,0.10
2022-09-02T10:13:32.807Z,0.10
2022-09-02T10:16:42.925Z,0.20
2022-09-02T10:17:42.411Z,0.10
2022-09-02T10:18:42.343Z,0.20
2022-09-02T10:19:42.325Z,0.10
2022-09-02T10:20:48.617Z,0.10
2022-09-02T10:21:45.190Z,0.10
2022-09-02T10:22:58.778Z,0.10
2022-09-02T10:23:43.275Z,0.10
2022-09-02T10:24:42.264Z,0.10
2022-09-02T10:25:42.254Z,0.10
2022-09-02T10:26:42.254Z,0.10
2022-09-02T10:27:42.565Z,0.10
2022-09-02T10:28:42.228Z,0.10
2022-09-02T10:29:42.204Z,0.20
2022-09-02T10:30:42.206Z,0.10
2022-09-02T10:31:42.614Z,0.20
2022-09-02T10:32:42.182Z,0.20
2022-09-02T10:33:42.146Z,0.20
2022-09-02T10:34:42.201Z,0.20
2022-09-02T10:35:42.132Z,0.10
2022-09-02T10:36:42.108Z,0.20
2022-09-02T10:37:42.491Z,0.10
2022-09-02T10:38:42.094Z,0.10
2022-09-02T10:39:42.071Z,0.10
2022-09-02T10:40:42.109Z,0.10
2022-09-02T10:42:42.070Z,0.10
2022-09-02T10:43:42.013Z,0.10
2022-09-02T10:44:42.062Z,0.10
2022-09-02T10:45:42.003Z,0.10
2022-09-02T10:46:42.473Z,0.10
2022-09-02T10:47:42.019Z,0.20
2022-09-02T10:48:41.960Z,0.20
2022-09-02T10:49:42.022Z,0.10
2022-09-02T10:50:43.759Z,0.20
2022-09-02T10:51:42.242Z,0.20
2022-09-02T10:52:41.912Z,0.10
2022-09-02T10:53:41.911Z,0.10
2022-09-02T10:54:41.943Z,0.10
2022-09-02T10:55:41.918Z,0.20
2022-09-02T10:56:41.852Z,0.10
2022-09-02T10:57:42.223Z,0.10
2022-09-02T10:58:41.832Z,0.10
2022-09-02T10:59:41.822Z,0.10
2022-09-02T11:00:41.841Z,0.10
2022-09-02T11:01:43.221Z,0.10
2022-09-02T11:02:41.789Z,0.10
2022-09-02T11:03:42.732Z,0.10
2022-09-02T11:04:41.768Z,0.20
2022-09-02T11:05:41.742Z,0.20
2022-09-02T11:07:01.334Z,0.10
2022-09-02T11:07:43.185Z,0.10
2022-09-02T11:08:41.704Z,0.10
2022-09-02T11:09:41.689Z,0.20
2022-09-02T11:10:41.684Z,0.20
2022-09-02T11:11:41.700Z,0.10
2022-09-02T11:12:41.669Z,0.20
2022-09-02T11:13:41.632Z,0.20
2022-09-02T11:14:41.623Z,0.10
2022-09-02T11:15:41.636Z,0.10
2022-09-02T11:16:42.052Z,0.10
2022-09-02T11:17:41.580Z,0.20
2022-09-02T11:18:41.559Z,0.10
2022-09-02T11:19:41.551Z,0.10
2022-09-02T11:20:41.546Z,0.10
2022-09-02T11:21:41.890Z,0.10
2022-09-02T11:22:41.516Z,0.10
2022-09-02T11:23:41.506Z,0.20
2022-09-02T11:24:45.847Z,0.20
2022-09-02T11:25:42.483Z,0.10
2022-09-02T11:26:41.461Z,0.10
2022-09-02T11:27:42.838Z,0.10
2022-09-02T11:28:41.460Z,0.20
2022-09-02T11:29:41.434Z,0.10
2022-09-02T11:30:41.468Z,0.10
2022-09-02T11:31:41.848Z,0.10
2022-09-02T11:32:41.395Z,0.30
2022-09-02T11:33:41.382Z,0.20
2022-09-02T11:34:41.425Z,0.20
2022-09-02T11:35:41.351Z,0.20
2022-09-02T11:36:41.347Z,0.10
2022-09-02T11:37:41.364Z,0.10
2022-09-02T11:38:41.310Z,0.10
2022-09-02T11:39:53.986Z,0.20
2022-09-02T11:40:42.402Z,0.20
2022-09-02T11:41:41.900Z,0.10
2022-09-02T11:42:41.262Z,0.10
2022-09-02T11:43:41.240Z,0.20
2022-09-02T11:44:41.268Z,0.10
2022-09-02T11:45:42.301Z,0.10
2022-09-02T11:46:41.568Z,0.20
2022-09-02T11:47:41.190Z,0.10
2022-09-02T11:48:41.197Z,0.10
2022-09-02T11:49:41.173Z,0.10
2022-09-02T11:50:41.172Z,0.20
2022-09-02T11:51:41.639Z,0.10
2022-09-02T11:52:41.143Z,0.10
2022-09-02T11:53:41.107Z,0.10
2022-09-02T11:54:41.137Z,0.10
2022-09-02T11:55:41.091Z,0.10
2022-09-02T11:56:41.071Z,0.20
2022-09-02T11:57:41.111Z,0.10
2022-09-02T11:58:41.068Z,0.10
2022-09-02T11:59:41.085Z,0.20
2022-09-02T12:00:41.022Z,0.30
2022-09-02T12:01:44.058Z,0.30
2022-09-02T12:02:41.006Z,0.20
2022-09-02T12:03:58.698Z,0.10
2022-09-02T12:04:59.904Z,0.10
2022-09-02T12:05:42.027Z,0.10
2022-09-02T12:06:40.993Z,0.20
2022-09-02T12:07:41.330Z,0.30
2022-09-02T12:08:40.923Z,0.30
2022-09-02T12:09:40.918Z,0.20
2022-09-02T12:10:40.913Z,0.20
2022-09-02T12:11:41.374Z,0.20
2022-09-02T12:12:40.862Z,0.20
2022-09-02T12:13:40.904Z,0.20
2022-09-02T12:14:40.834Z,0.20
2022-09-02T12:15:40.822Z,0.10
2022-09-02T12:16:41.192Z,0.20
2022-09-02T12:17:40.808Z,0.10
2022-09-02T12:18:40.780Z,0.20
2022-09-02T12:19:40.770Z,0.20
2022-09-02T12:20:40.741Z,0.20
2022-09-02T12:21:41.110Z,0.10
2022-09-02T12:22:40.737Z,0.20
2022-09-02T12:23:40.709Z,0.20
2022-09-02T12:24:40.692Z,0.50
2022-09-02T12:25:40.691Z,0.20
2022-09-02T12:26:40.696Z,0.20
2022-09-02T12:27:40.903Z,0.20
2022-09-02T12:28:40.674Z,0.10
2022-09-02T12:29:40.754Z,0.20
2022-09-02T12:30:40.698Z,0.20
2022-09-02T12:31:41.029Z,0.20
2022-09-02T12:32:40.592Z,0.10
2022-09-02T12:33:40.603Z,0.20
2022-09-02T12:34:40.584Z,0.20
2022-09-02T12:35:40.748Z,0.20
2022-09-02T12:36:40.532Z,0.20
2022-09-02T12:37:40.560Z,0.10
2022-09-02T12:38:40.532Z,0.20
2022-09-02T12:39:40.537Z,0.20
2022-09-02T12:40:40.557Z,0.10
2022-09-02T12:41:40.501Z,0.20
2022-09-02T12:42:40.492Z,0.10
2022-09-02T12:43:40.466Z,0.10
2022-09-02T12:44:40.450Z,0.20
2022-09-02T12:45:40.480Z,0.20
2022-09-02T12:46:40.521Z,0.30
2022-09-02T12:47:40.467Z,0.20
2022-09-02T12:48:40.482Z,0.30
2022-09-02T12:49:40.392Z,0.20
2022-09-02T12:50:40.360Z,0.20
2022-09-02T12:51:40.821Z,0.20
2022-09-02T12:52:40.340Z,0.10
2022-09-02T12:53:40.312Z,0.10
2022-09-02T12:54:40.341Z,0.10
2022-09-02T12:55:40.292Z,0.10
2022-09-02T12:56:40.296Z,0.10
2022-09-02T12:57:40.291Z,0.10
2022-09-02T12:58:40.251Z,0.20
2022-09-02T12:59:40.232Z,0.30
2022-09-02T13:00:40.222Z,0.20
2022-09-02T13:01:40.404Z,0.20
2022-09-02T13:02:40.198Z,0.20
2022-09-02T13:03:40.191Z,0.30
2022-09-02T13:04:40.184Z,0.10
2022-09-02T13:05:40.161Z,0.10
2022-09-02T13:06:40.151Z,0.10
2022-09-02T13:07:40.164Z,0.20
2022-09-02T13:08:40.122Z,0.20
2022-09-02T13:09:40.508Z,0.10
2022-09-02T13:10:40.125Z,0.10
2022-09-02T13:11:40.434Z,0.20
2022-09-02T13:12:40.073Z,0.20
2022-09-02T13:13:40.081Z,0.10
2022-09-02T13:14:40.091Z,0.20
2022-09-02T13:15:40.077Z,0.20
2022-09-02T13:16:40.361Z,0.10
2022-09-02T13:17:40.382Z,0.20
2022-09-02T13:18:40.002Z,0.20
2022-09-02T13:19:40.000Z,0.10
2022-09-02T13:20:39.999Z,0.10
2022-09-02T13:21:40.433Z,0.10
2022-09-02T13:22:39.938Z,0.10
2022-09-02T13:23:39.942Z,0.20
2022-09-02T13:24:39.935Z,0.20
2022-09-02T13:25:41.526Z,0.10
2022-09-02T13:26:49.362Z,0.10
2022-09-02T13:27:40.899Z,0.20
2022-09-02T13:28:46.881Z,0.10
2022-09-02T13:29:46.850Z,0.20
2022-09-02T13:31:56.307Z,0.10
2022-09-02T13:33:02.951Z,0.10
2022-09-02T13:34:05.352Z,0.10
2022-09-02T13:35:02.922Z,0.10
2022-09-02T13:36:02.920Z,0.10
2022-09-02T13:37:03.242Z,0.10